sensor_id;sensor_type;location;lat;lon;timestamp;pressure;altitude;pressure_sealevel;temperature;humidity
34103;BME280;20381;54.498;18.206;2023-10-09T00:00:34;100185.91;;;2.41;59.89
34103;BME280;20381;54.498;18.206;2023-10-09T00:03:27;100179.48;;;2.51;59.81
34103;BME280;20381;54.498;18.206;2023-10-09T00:05:57;100168.63;;;2.57;60.00
34103;BME280;20381;54.498;18.206;2023-10-09T00:08:26;100165.15;;;2.60;59.90
34103;BME280;20381;54.498;18.206;2023-10-09T00:11:01;100170.80;;;2.64;60.07
34103;BME280;20381;54.498;18.206;2023-10-09T00:13:46;100166.30;;;2.66;60.13
34103;BME280;20381;54.498;18.206;2023-10-09T00:16:26;100167.64;;;2.71;60.40
34103;BME280;20381;54.498;18.206;2023-10-09T00:19:05;100161.92;;;2.76;60.25
34103;BME280;20381;54.498;18.206;2023-10-09T00:21:54;100151.94;;;2.79;60.55
34103;BME280;20381;54.498;18.206;2023-10-09T00:24:24;100148.48;;;2.81;60.33
34103;BME280;20381;54.498;18.206;2023-10-09T00:26:54;100147.79;;;2.81;60.32
34103;BME280;20381;54.498;18.206;2023-10-09T00:29:44;100143.64;;;2.82;60.48
34103;BME280;20381;54.498;18.206;2023-10-09T00:32:14;100143.96;;;2.85;60.79
34103;BME280;20381;54.498;18.206;2023-10-09T00:35:00;100140.83;;;2.89;60.88
34103;BME280;20381;54.498;18.206;2023-10-09T00:37:49;100142.17;;;2.95;60.77
34103;BME280;20381;54.498;18.206;2023-10-09T00:40:23;100144.88;;;2.99;60.67
34103;BME280;20381;54.498;18.206;2023-10-09T00:42:59;100151.55;;;3.02;60.80
34103;BME280;20381;54.498;18.206;2023-10-09T00:45:34;100150.67;;;3.04;60.76
34103;BME280;20381;54.498;18.206;2023-10-09T00:48:07;100136.54;;;3.07;60.82
34103;BME280;20381;54.498;18.206;2023-10-09T00:50:36;100142.71;;;3.09;60.90
34103;BME280;20381;54.498;18.206;2023-10-09T00:53:07;100141.32;;;3.11;60.95
34103;BME280;20381;54.498;18.206;2023-10-09T00:55:40;100145.92;;;3.16;61.00
34103;BME280;20381;54.498;18.206;2023-10-09T00:58:13;100146.21;;;3.20;60.89
34103;BME280;20381;54.498;18.206;2023-10-09T01:00:42;100147.73;;;3.22;61.11
34103;BME280;20381;54.498;18.206;2023-10-09T01:03:16;100150.47;;;3.24;61.25
34103;BME280;20381;54.498;18.206;2023-10-09T01:05:55;100148.23;;;3.24;61.26
34103;BME280;20381;54.498;18.206;2023-10-09T01:08:31;100140.80;;;3.26;61.21
34103;BME280;20381;54.498;18.206;2023-10-09T01:11:13;100137.70;;;3.28;61.21
34103;BME280;20381;54.498;18.206;2023-10-09T01:13:50;100139.58;;;3.29;61.26
34103;BME280;20381;54.498;18.206;2023-10-09T01:16:21;100137.38;;;3.26;61.46
34103;BME280;20381;54.498;18.206;2023-10-09T01:18:53;100128.77;;;3.27;61.53
34103;BME280;20381;54.498;18.206;2023-10-09T01:21:26;100135.25;;;3.31;61.66
34103;BME280;20381;54.498;18.206;2023-10-09T01:23:56;100139.86;;;3.34;61.84
34103;BME280;20381;54.498;18.206;2023-10-09T01:26:40;100144.34;;;3.35;61.95
34103;BME280;20381;54.498;18.206;2023-10-09T01:29:19;100145.55;;;3.34;62.10
34103;BME280;20381;54.498;18.206;2023-10-09T01:31:50;100137.38;;;3.41;62.03
34103;BME280;20381;54.498;18.206;2023-10-09T01:34:31;100136.61;;;3.48;62.12
34103;BME280;20381;54.498;18.206;2023-10-09T01:37:14;100126.42;;;3.51;62.04
34103;BME280;20381;54.498;18.206;2023-10-09T01:39:55;100114.85;;;3.55;62.04
34103;BME280;20381;54.498;18.206;2023-10-09T01:42:27;100112.57;;;3.57;62.01
34103;BME280;20381;54.498;18.206;2023-10-09T01:44:59;100114.61;;;3.59;62.13
34103;BME280;20381;54.498;18.206;2023-10-09T01:47:38;100117.66;;;3.63;62.15
34103;BME280;20381;54.498;18.206;2023-10-09T01:50:07;100119.04;;;3.64;62.20
34103;BME280;20381;54.498;18.206;2023-10-09T01:52:51;100111.77;;;3.66;62.30
34103;BME280;20381;54.498;18.206;2023-10-09T01:55:20;100105.92;;;3.66;62.22
34103;BME280;20381;54.498;18.206;2023-10-09T01:57:57;100102.56;;;3.60;62.35
34103;BME280;20381;54.498;18.206;2023-10-09T02:00:26;100104.15;;;3.57;62.47
34103;BME280;20381;54.498;18.206;2023-10-09T02:02:57;100101.93;;;3.55;62.60
34103;BME280;20381;54.498;18.206;2023-10-09T02:05:32;100102.21;;;3.59;62.61
34103;BME280;20381;54.498;18.206;2023-10-09T02:08:04;100091.33;;;3.63;62.52
34103;BME280;20381;54.498;18.206;2023-10-09T02:10:34;100081.67;;;3.65;62.68
34103;BME280;20381;54.498;18.206;2023-10-09T02:13:06;100080.30;;;3.65;62.63
34103;BME280;20381;54.498;18.206;2023-10-09T02:15:38;100076.48;;;3.66;62.63
34103;BME280;20381;54.498;18.206;2023-10-09T02:21:06;100071.27;;;3.70;62.72
34103;BME280;20381;54.498;18.206;2023-10-09T02:23:35;100067.62;;;3.73;62.73
34103;BME280;20381;54.498;18.206;2023-10-09T02:26:19;100062.67;;;3.69;62.70
34103;BME280;20381;54.498;18.206;2023-10-09T02:28:55;100065.33;;;3.64;62.77
34103;BME280;20381;54.498;18.206;2023-10-09T02:31:28;100062.94;;;3.63;62.75
34103;BME280;20381;54.498;18.206;2023-10-09T02:34:04;100060.33;;;3.65;62.96
34103;BME280;20381;54.498;18.206;2023-10-09T02:36:34;100057.17;;;3.68;62.88
34103;BME280;20381;54.498;18.206;2023-10-09T02:39:18;100056.25;;;3.72;62.86
34103;BME280;20381;54.498;18.206;2023-10-09T02:41:57;100058.64;;;3.73;62.92
34103;BME280;20381;54.498;18.206;2023-10-09T02:44:34;100053.39;;;3.68;63.09
34103;BME280;20381;54.498;18.206;2023-10-09T02:47:08;100051.18;;;3.66;63.20
34103;BME280;20381;54.498;18.206;2023-10-09T02:49:47;100051.34;;;3.54;63.05
34103;BME280;20381;54.498;18.206;2023-10-09T02:52:19;100050.74;;;3.34;63.07
34103;BME280;20381;54.498;18.206;2023-10-09T02:54:47;100047.33;;;3.32;63.33
34103;BME280;20381;54.498;18.206;2023-10-09T02:57:16;100045.99;;;3.42;63.42
34103;BME280;20381;54.498;18.206;2023-10-09T02:59:51;100050.34;;;3.51;63.42
34103;BME280;20381;54.498;18.206;2023-10-09T03:02:20;100041.98;;;3.58;63.54
34103;BME280;20381;54.498;18.206;2023-10-09T03:04:48;100040.86;;;3.64;63.51
34103;BME280;20381;54.498;18.206;2023-10-09T03:07:17;100035.48;;;3.68;63.54
34103;BME280;20381;54.498;18.206;2023-10-09T03:09:45;100028.21;;;3.70;63.56
34103;BME280;20381;54.498;18.206;2023-10-09T03:12:13;100026.45;;;3.74;63.66
34103;BME280;20381;54.498;18.206;2023-10-09T03:14:47;100019.55;;;3.75;63.70
34103;BME280;20381;54.498;18.206;2023-10-09T03:17:15;100019.05;;;3.74;63.66
34103;BME280;20381;54.498;18.206;2023-10-09T03:19:44;100016.44;;;3.75;63.69
34103;BME280;20381;54.498;18.206;2023-10-09T03:22:14;100002.35;;;3.73;63.67
34103;BME280;20381;54.498;18.206;2023-10-09T03:24:42;99994.80;;;3.71;63.72
34103;BME280;20381;54.498;18.206;2023-10-09T03:27:18;99993.27;;;3.71;63.85
34103;BME280;20381;54.498;18.206;2023-10-09T03:29:47;99996.44;;;3.66;63.84
34103;BME280;20381;54.498;18.206;2023-10-09T03:32:22;99997.55;;;3.60;63.97
34103;BME280;20381;54.498;18.206;2023-10-09T03:34:52;99996.41;;;3.56;64.04
34103;BME280;20381;54.498;18.206;2023-10-09T03:37:21;99998.53;;;3.52;64.07
34103;BME280;20381;54.498;18.206;2023-10-09T03:40:10;100003.87;;;3.52;64.29
34103;BME280;20381;54.498;18.206;2023-10-09T03:42:45;100008.99;;;3.54;64.47
34103;BME280;20381;54.498;18.206;2023-10-09T03:45:14;100011.91;;;3.56;64.45
34103;BME280;20381;54.498;18.206;2023-10-09T03:48:03;100008.62;;;3.56;64.48
34103;BME280;20381;54.498;18.206;2023-10-09T03:50:43;100004.11;;;3.59;64.48
34103;BME280;20381;54.498;18.206;2023-10-09T03:53:11;99996.84;;;3.62;64.42
34103;BME280;20381;54.498;18.206;2023-10-09T03:55:41;99996.80;;;3.65;64.59
34103;BME280;20381;54.498;18.206;2023-10-09T03:58:10;99995.71;;;3.68;64.70
34103;BME280;20381;54.498;18.206;2023-10-09T04:00:42;99994.13;;;3.70;64.74
34103;BME280;20381;54.498;18.206;2023-10-09T04:03:15;99991.77;;;3.66;64.58
34103;BME280;20381;54.498;18.206;2023-10-09T04:05:45;99986.05;;;3.69;64.69
34103;BME280;20381;54.498;18.206;2023-10-09T04:08:14;99987.13;;;3.77;64.87
34103;BME280;20381;54.498;18.206;2023-10-09T04:10:57;99987.73;;;3.84;64.87
34103;BME280;20381;54.498;18.206;2023-10-09T04:13:32;99986.99;;;3.87;64.92
34103;BME280;20381;54.498;18.206;2023-10-09T04:16:02;99986.38;;;3.93;65.01
34103;BME280;20381;54.498;18.206;2023-10-09T04:19:01;99981.82;;;3.98;64.85
34103;BME280;20381;54.498;18.206;2023-10-09T04:21:39;99979.02;;;4.00;64.82
34103;BME280;20381;54.498;18.206;2023-10-09T04:24:10;99976.07;;;4.02;64.82
34103;BME280;20381;54.498;18.206;2023-10-09T04:26:44;99968.13;;;4.03;64.80
34103;BME280;20381;54.498;18.206;2023-10-09T04:29:14;99965.34;;;4.05;64.80
34103;BME280;20381;54.498;18.206;2023-10-09T04:31:56;99967.48;;;4.01;64.84
34103;BME280;20381;54.498;18.206;2023-10-09T04:34:25;99970.10;;;3.88;64.85
34103;BME280;20381;54.498;18.206;2023-10-09T04:36:57;99969.45;;;3.85;65.03
34103;BME280;20381;54.498;18.206;2023-10-09T04:39:29;99971.77;;;3.80;65.20
34103;BME280;20381;54.498;18.206;2023-10-09T04:41:58;99968.69;;;3.79;65.19
34103;BME280;20381;54.498;18.206;2023-10-09T04:44:46;99961.70;;;3.85;65.45
34103;BME280;20381;54.498;18.206;2023-10-09T04:47:34;99961.45;;;3.91;65.42
34103;BME280;20381;54.498;18.206;2023-10-09T04:50:08;99957.76;;;3.95;65.36
34103;BME280;20381;54.498;18.206;2023-10-09T04:52:38;99949.05;;;4.00;65.45
34103;BME280;20381;54.498;18.206;2023-10-09T04:55:08;99948.69;;;4.02;65.41
34103;BME280;20381;54.498;18.206;2023-10-09T04:57:37;99951.41;;;4.03;65.37
34103;BME280;20381;54.498;18.206;2023-10-09T05:00:18;99946.94;;;4.03;65.30
34103;BME280;20381;54.498;18.206;2023-10-09T05:02:56;99950.38;;;4.03;65.20
34103;BME280;20381;54.498;18.206;2023-10-09T05:05:29;99954.26;;;3.88;65.08
34103;BME280;20381;54.498;18.206;2023-10-09T05:08:11;99954.27;;;3.76;65.24
34103;BME280;20381;54.498;18.206;2023-10-09T05:10:58;99941.61;;;3.81;65.32
34103;BME280;20381;54.498;18.206;2023-10-09T05:13:36;99940.26;;;3.91;65.32
34103;BME280;20381;54.498;18.206;2023-10-09T05:16:16;99931.34;;;3.99;65.30
34103;BME280;20381;54.498;18.206;2023-10-09T05:18:56;99923.64;;;4.05;65.44
34103;BME280;20381;54.498;18.206;2023-10-09T05:21:30;99926.00;;;4.08;65.52
34103;BME280;20381;54.498;18.206;2023-10-09T05:24:00;99927.90;;;4.08;65.61
34103;BME280;20381;54.498;18.206;2023-10-09T05:26:49;99927.67;;;4.11;65.65
34103;BME280;20381;54.498;18.206;2023-10-09T05:31:49;99926.73;;;4.16;65.66
34103;BME280;20381;54.498;18.206;2023-10-09T05:34:36;99923.70;;;4.21;65.62
34103;BME280;20381;54.498;18.206;2023-10-09T05:37:26;99925.14;;;4.28;65.81
34103;BME280;20381;54.498;18.206;2023-10-09T05:40:06;99924.29;;;4.37;65.83
34103;BME280;20381;54.498;18.206;2023-10-09T05:42:54;99930.87;;;4.44;65.72
34103;BME280;20381;54.498;18.206;2023-10-09T05:45:27;99930.45;;;4.48;65.64
34103;BME280;20381;54.498;18.206;2023-10-09T05:48:19;99919.50;;;4.53;65.70
34103;BME280;20381;54.498;18.206;2023-10-09T05:50:47;99918.52;;;4.58;65.71
34103;BME280;20381;54.498;18.206;2023-10-09T05:53:34;99918.61;;;4.63;65.56
34103;BME280;20381;54.498;18.206;2023-10-09T05:56:12;99915.92;;;4.68;65.61
34103;BME280;20381;54.498;18.206;2023-10-09T05:58:59;99908.36;;;4.75;65.65
34103;BME280;20381;54.498;18.206;2023-10-09T06:02:01;99906.44;;;4.85;65.88
34103;BME280;20381;54.498;18.206;2023-10-09T06:04:30;99909.29;;;4.89;65.85
34103;BME280;20381;54.498;18.206;2023-10-09T06:07:17;99911.79;;;4.93;66.15
34103;BME280;20381;54.498;18.206;2023-10-09T06:09:51;99926.73;;;5.04;66.39
34103;BME280;20381;54.498;18.206;2023-10-09T06:12:25;99926.48;;;5.24;66.31
34103;BME280;20381;54.498;18.206;2023-10-09T06:15:21;99916.58;;;5.42;66.29
34103;BME280;20381;54.498;18.206;2023-10-09T06:18:08;99912.70;;;5.60;66.14
34103;BME280;20381;54.498;18.206;2023-10-09T06:21:01;99912.23;;;5.79;66.05
34103;BME280;20381;54.498;18.206;2023-10-09T06:23:36;99912.38;;;5.95;65.93
34103;BME280;20381;54.498;18.206;2023-10-09T06:26:24;99926.80;;;6.20;66.06
34103;BME280;20381;54.498;18.206;2023-10-09T06:28:55;99933.20;;;6.32;66.24
34103;BME280;20381;54.498;18.206;2023-10-09T06:31:42;99936.42;;;6.41;65.76
34103;BME280;20381;54.498;18.206;2023-10-09T06:34:29;99936.39;;;6.55;65.87
34103;BME280;20381;54.498;18.206;2023-10-09T06:37:13;99935.63;;;6.70;65.69
34103;BME280;20381;54.498;18.206;2023-10-09T06:40:03;99935.06;;;6.84;65.76
34103;BME280;20381;54.498;18.206;2023-10-09T06:42:57;99926.02;;;7.04;65.78
34103;BME280;20381;54.498;18.206;2023-10-09T06:45:26;99931.45;;;7.25;65.87
34103;BME280;20381;54.498;18.206;2023-10-09T06:48:12;99926.05;;;7.54;65.76
34103;BME280;20381;54.498;18.206;2023-10-09T06:51:07;99925.91;;;7.80;65.56
34103;BME280;20381;54.498;18.206;2023-10-09T06:53:44;99925.79;;;7.95;65.32
34103;BME280;20381;54.498;18.206;2023-10-09T06:56:29;99928.54;;;8.11;65.32
34103;BME280;20381;54.498;18.206;2023-10-09T06:59:05;99929.23;;;8.31;65.42
34103;BME280;20381;54.498;18.206;2023-10-09T07:01:47;99933.35;;;8.48;65.18
34103;BME280;20381;54.498;18.206;2023-10-09T07:04:36;99933.15;;;8.68;65.12
34103;BME280;20381;54.498;18.206;2023-10-09T07:07:06;99933.33;;;8.88;65.01
34103;BME280;20381;54.498;18.206;2023-10-09T07:09:49;99932.98;;;9.06;64.92
34103;BME280;20381;54.498;18.206;2023-10-09T07:12:36;99930.68;;;9.21;64.56
34103;BME280;20381;54.498;18.206;2023-10-09T07:15:11;99925.67;;;9.33;64.51
34103;BME280;20381;54.498;18.206;2023-10-09T07:17:40;99929.88;;;9.32;64.21
34103;BME280;20381;54.498;18.206;2023-10-09T07:20:09;99926.82;;;9.35;64.09
34103;BME280;20381;54.498;18.206;2023-10-09T07:22:41;99926.35;;;9.43;64.19
34103;BME280;20381;54.498;18.206;2023-10-09T07:25:30;99926.23;;;9.50;64.06
34103;BME280;20381;54.498;18.206;2023-10-09T07:28:23;99926.48;;;9.57;63.78
34103;BME280;20381;54.498;18.206;2023-10-09T07:31:05;99930.61;;;9.53;63.64
34103;BME280;20381;54.498;18.206;2023-10-09T07:33:38;99928.13;;;9.37;63.55
34103;BME280;20381;54.498;18.206;2023-10-09T07:36:25;99932.50;;;9.37;63.58
34103;BME280;20381;54.498;18.206;2023-10-09T07:39:04;99928.15;;;9.41;63.40
34103;BME280;20381;54.498;18.206;2023-10-09T07:41:42;99934.56;;;9.24;62.92
34103;BME280;20381;54.498;18.206;2023-10-09T07:44:25;99932.89;;;9.22;63.09
34103;BME280;20381;54.498;18.206;2023-10-09T07:47:07;99926.95;;;9.23;63.18
34103;BME280;20381;54.498;18.206;2023-10-09T07:49:54;99931.89;;;9.16;62.82
34103;BME280;20381;54.498;18.206;2023-10-09T07:52:27;99933.59;;;9.08;62.75
34103;BME280;20381;54.498;18.206;2023-10-09T07:54:57;99938.58;;;9.14;62.84
34103;BME280;20381;54.498;18.206;2023-10-09T07:57:34;99936.89;;;9.31;63.06
34103;BME280;20381;54.498;18.206;2023-10-09T08:00:11;99926.45;;;9.40;62.64
34103;BME280;20381;54.498;18.206;2023-10-09T08:02:59;99919.91;;;9.61;62.71
34103;BME280;20381;54.498;18.206;2023-10-09T08:05:32;99918.89;;;9.77;62.58
34103;BME280;20381;54.498;18.206;2023-10-09T08:08:13;99915.62;;;9.97;62.49
34103;BME280;20381;54.498;18.206;2023-10-09T08:11:09;99904.30;;;10.27;62.58
34103;BME280;20381;54.498;18.206;2023-10-09T08:13:56;99897.16;;;10.63;62.51
34103;BME280;20381;54.498;18.206;2023-10-09T08:16:25;99890.88;;;10.98;62.41
34103;BME280;20381;54.498;18.206;2023-10-09T08:19:05;99889.04;;;11.37;62.16
34103;BME280;20381;54.498;18.206;2023-10-09T08:21:54;99881.52;;;11.63;61.97
34103;BME280;20381;54.498;18.206;2023-10-09T08:24:41;99877.27;;;12.10;62.09
34103;BME280;20381;54.498;18.206;2023-10-09T08:27:10;99869.96;;;12.47;61.64
34103;BME280;20381;54.498;18.206;2023-10-09T08:29:57;99866.02;;;12.97;61.86
34103;BME280;20381;54.498;18.206;2023-10-09T08:32:49;99866.55;;;13.78;61.96
34103;BME280;20381;54.498;18.206;2023-10-09T08:35:56;99864.89;;;15.04;62.32
34103;BME280;20381;54.498;18.206;2023-10-09T08:38:34;99863.27;;;16.70;62.49
34103;BME280;20381;54.498;18.206;2023-10-09T08:41:09;99864.42;;;18.82;61.96
34103;BME280;20381;54.498;18.206;2023-10-09T08:43:51;99863.33;;;20.70;60.43
34103;BME280;20381;54.498;18.206;2023-10-09T08:46:22;99860.20;;;22.62;61.07
34103;BME280;20381;54.498;18.206;2023-10-09T08:48:51;99859.95;;;24.25;58.11
34103;BME280;20381;54.498;18.206;2023-10-09T08:51:22;99858.94;;;24.56;57.85
34103;BME280;20381;54.498;18.206;2023-10-09T08:53:57;99859.38;;;25.83;57.05
34103;BME280;20381;54.498;18.206;2023-10-09T08:56:26;99857.70;;;26.58;55.43
34103;BME280;20381;54.498;18.206;2023-10-09T08:58:58;99854.41;;;25.71;53.58
34103;BME280;20381;54.498;18.206;2023-10-09T09:01:30;99861.66;;;25.52;53.64
34103;BME280;20381;54.498;18.206;2023-10-09T09:04:02;99862.86;;;24.93;51.43
34103;BME280;20381;54.498;18.206;2023-10-09T09:06:37;99864.41;;;24.04;50.18
34103;BME280;20381;54.498;18.206;2023-10-09T09:09:10;99865.58;;;23.37;49.38
34103;BME280;20381;54.498;18.206;2023-10-09T09:11:43;99860.36;;;23.29;49.84
34103;BME280;20381;54.498;18.206;2023-10-09T09:14:38;99861.98;;;24.04;48.79
34103;BME280;20381;54.498;18.206;2023-10-09T09:17:07;99861.80;;;24.58;48.43
34103;BME280;20381;54.498;18.206;2023-10-09T09:19:39;99865.42;;;24.86;46.75
34103;BME280;20381;54.498;18.206;2023-10-09T09:22:08;99871.13;;;23.78;45.46
34103;BME280;20381;54.498;18.206;2023-10-09T09:24:41;99866.05;;;23.37;45.81
34103;BME280;20381;54.498;18.206;2023-10-09T09:27:45;99872.05;;;23.65;44.99
34103;BME280;20381;54.498;18.206;2023-10-09T09:30:28;99865.91;;;23.93;45.29
34103;BME280;20381;54.498;18.206;2023-10-09T09:33:28;99867.34;;;23.39;43.22
34103;BME280;20381;54.498;18.206;2023-10-09T09:36:09;99862.93;;;22.65;42.77
34103;BME280;20381;54.498;18.206;2023-10-09T09:38:40;99866.06;;;22.45;43.11
34103;BME280;20381;54.498;18.206;2023-10-09T09:41:19;99861.60;;;22.33;42.55
34103;BME280;20381;54.498;18.206;2023-10-09T09:43:55;99859.83;;;22.00;41.95
34103;BME280;20381;54.498;18.206;2023-10-09T09:46:33;99859.45;;;21.34;41.11
34103;BME280;20381;54.498;18.206;2023-10-09T09:49:04;99859.60;;;20.40;41.05
34103;BME280;20381;54.498;18.206;2023-10-09T09:51:45;99856.38;;;20.07;41.31
34103;BME280;20381;54.498;18.206;2023-10-09T09:54:15;99850.89;;;19.86;40.94
34103;BME280;20381;54.498;18.206;2023-10-09T09:56:45;99849.87;;;19.77;40.74
34103;BME280;20381;54.498;18.206;2023-10-09T09:59:24;99849.20;;;19.78;40.62
34103;BME280;20381;54.498;18.206;2023-10-09T10:01:58;99849.03;;;19.93;40.65
34103;BME280;20381;54.498;18.206;2023-10-09T10:04:38;99850.20;;;19.95;40.22
34103;BME280;20381;54.498;18.206;2023-10-09T10:07:37;99850.59;;;19.77;40.02
34103;BME280;20381;54.498;18.206;2023-10-09T10:16:17;99841.45;;;21.97;39.07
34103;BME280;20381;54.498;18.206;2023-10-09T10:19:09;99838.86;;;21.89;39.41
34103;BME280;20381;54.498;18.206;2023-10-09T10:21:44;99839.92;;;22.01;38.89
34103;BME280;20381;54.498;18.206;2023-10-09T10:27:20;99838.88;;;25.84;39.67
34103;BME280;20381;54.498;18.206;2023-10-09T10:35:21;99827.58;;;30.32;38.25
34103;BME280;20381;54.498;18.206;2023-10-09T10:38:00;99820.18;;;31.19;37.78
34103;BME280;20381;54.498;18.206;2023-10-09T10:41:10;99821.51;;;31.44;37.65
34103;BME280;20381;54.498;18.206;2023-10-09T10:43:45;99818.14;;;32.69;36.40
34103;BME280;20381;54.498;18.206;2023-10-09T10:46:32;99813.50;;;33.57;35.89
34103;BME280;20381;54.498;18.206;2023-10-09T10:49:19;99815.12;;;34.40;34.86
34103;BME280;20381;54.498;18.206;2023-10-09T10:51:52;99818.45;;;35.50;35.08
34103;BME280;20381;54.498;18.206;2023-10-09T10:58:15;99806.44;;;38.03;32.70
34103;BME280;20381;54.498;18.206;2023-10-09T11:01:39;99796.38;;;38.02;31.39
34103;BME280;20381;54.498;18.206;2023-10-09T11:03:54;99789.24;;;37.47;30.86
34103;BME280;20381;54.498;18.206;2023-10-09T11:06:31;99782.95;;;38.12;30.08
34103;BME280;20381;54.498;18.206;2023-10-09T11:09:08;99777.36;;;38.35;29.58
34103;BME280;20381;54.498;18.206;2023-10-09T11:12:21;99775.58;;;39.61;28.97
34103;BME280;20381;54.498;18.206;2023-10-09T11:15:14;99770.65;;;40.56;27.57
34103;BME280;20381;54.498;18.206;2023-10-09T11:18:46;99770.36;;;39.16;25.66
34103;BME280;20381;54.498;18.206;2023-10-09T11:21:19;99770.88;;;36.76;23.59
34103;BME280;20381;54.498;18.206;2023-10-09T11:24:12;99763.38;;;33.67;23.82
34103;BME280;20381;54.498;18.206;2023-10-09T11:27:08;99766.00;;;31.80;23.81
34103;BME280;20381;54.498;18.206;2023-10-09T11:29:51;99758.54;;;30.14;23.44
34103;BME280;20381;54.498;18.206;2023-10-09T11:32:21;99754.19;;;30.86;23.81
34103;BME280;20381;54.498;18.206;2023-10-09T11:35:23;99745.13;;;33.48;23.95
34103;BME280;20381;54.498;18.206;2023-10-09T11:38:07;99740.73;;;36.07;23.84
34103;BME280;20381;54.498;18.206;2023-10-09T11:41:19;99732.05;;;38.25;23.88
34103;BME280;20381;54.498;18.206;2023-10-09T11:43:54;99732.45;;;39.24;23.20
34103;BME280;20381;54.498;18.206;2023-10-09T11:50:02;99725.05;;;41.96;22.48
34103;BME280;20381;54.498;18.206;2023-10-09T11:52:32;99718.59;;;42.31;22.42
34103;BME280;20381;54.498;18.206;2023-10-09T11:55:05;99714.98;;;43.00;21.75
34103;BME280;20381;54.498;18.206;2023-10-09T11:57:44;99704.38;;;42.45;20.97
34103;BME280;20381;54.498;18.206;2023-10-09T12:00:13;99711.68;;;41.92;20.87
34103;BME280;20381;54.498;18.206;2023-10-09T12:02:58;99707.57;;;41.36;20.41
34103;BME280;20381;54.498;18.206;2023-10-09T12:05:34;99705.25;;;38.96;20.01
34103;BME280;20381;54.498;18.206;2023-10-09T12:08:03;99700.30;;;37.81;20.21
34103;BME280;20381;54.498;18.206;2023-10-09T12:10:36;99697.73;;;37.88;19.53
34103;BME280;20381;54.498;18.206;2023-10-09T12:13:08;99706.88;;;36.56;19.02
34103;BME280;20381;54.498;18.206;2023-10-09T12:18:43;99711.39;;;30.58;19.10
34103;BME280;20381;54.498;18.206;2023-10-09T12:21:21;99711.91;;;29.01;19.28
34103;BME280;20381;54.498;18.206;2023-10-09T12:23:51;99712.08;;;28.11;19.40
34103;BME280;20381;54.498;18.206;2023-10-09T12:26:29;99710.77;;;27.03;19.37
34103;BME280;20381;54.498;18.206;2023-10-09T12:29:03;99720.61;;;25.69;19.54
34103;BME280;20381;54.498;18.206;2023-10-09T12:31:39;99725.20;;;24.84;20.06
34103;BME280;20381;54.498;18.206;2023-10-09T12:34:08;99727.93;;;24.90;20.07
34103;BME280;20381;54.498;18.206;2023-10-09T12:36:46;99725.98;;;24.19;20.18
34103;BME280;20381;54.498;18.206;2023-10-09T12:39:48;99733.33;;;23.49;20.23
34103;BME280;20381;54.498;18.206;2023-10-09T12:42:18;99735.92;;;22.32;20.32
34103;BME280;20381;54.498;18.206;2023-10-09T12:44:46;99733.24;;;21.51;20.53
34103;BME280;20381;54.498;18.206;2023-10-09T12:47:16;99735.46;;;20.76;20.72
34103;BME280;20381;54.498;18.206;2023-10-09T12:49:48;99733.01;;;19.95;21.09
34103;BME280;20381;54.498;18.206;2023-10-09T12:55:22;99727.52;;;18.94;21.59
34103;BME280;20381;54.498;18.206;2023-10-09T12:58:15;99726.77;;;18.51;21.95
34103;BME280;20381;54.498;18.206;2023-10-09T13:00:50;99729.64;;;17.89;22.33
34103;BME280;20381;54.498;18.206;2023-10-09T13:03:24;99735.55;;;17.34;22.43
34103;BME280;20381;54.498;18.206;2023-10-09T13:06:12;99737.77;;;16.59;22.62
34103;BME280;20381;54.498;18.206;2023-10-09T13:08:41;99737.81;;;15.88;23.16
34103;BME280;20381;54.498;18.206;2023-10-09T13:11:11;99740.86;;;15.56;23.68
34103;BME280;20381;54.498;18.206;2023-10-09T13:13:41;99732.73;;;15.30;23.98
34103;BME280;20381;54.498;18.206;2023-10-09T13:19:03;99736.21;;;14.58;24.59
34103;BME280;20381;54.498;18.206;2023-10-09T13:21:41;99729.30;;;14.26;24.66
34103;BME280;20381;54.498;18.206;2023-10-09T13:24:10;99731.91;;;14.03;25.34
34103;BME280;20381;54.498;18.206;2023-10-09T13:26:45;99723.75;;;13.99;25.85
34103;BME280;20381;54.498;18.206;2023-10-09T13:29:15;99720.27;;;14.04;25.94
34103;BME280;20381;54.498;18.206;2023-10-09T13:31:51;99721.85;;;14.10;26.30
34103;BME280;20381;54.498;18.206;2023-10-09T13:34:27;99722.44;;;13.95;26.68
34103;BME280;20381;54.498;18.206;2023-10-09T13:37:02;99725.00;;;13.73;26.92
34103;BME280;20381;54.498;18.206;2023-10-09T13:39:41;99726.63;;;13.72;27.26
34103;BME280;20381;54.498;18.206;2023-10-09T13:42:22;99723.74;;;13.93;27.42
34103;BME280;20381;54.498;18.206;2023-10-09T13:44:54;99729.73;;;13.96;27.65
34103;BME280;20381;54.498;18.206;2023-10-09T13:47:23;99730.65;;;14.03;27.97
34103;BME280;20381;54.498;18.206;2023-10-09T13:50:03;99730.54;;;14.08;28.04
34103;BME280;20381;54.498;18.206;2023-10-09T13:52:32;99725.91;;;14.07;28.24
34103;BME280;20381;54.498;18.206;2023-10-09T13:55:08;99727.98;;;14.04;28.62
34103;BME280;20381;54.498;18.206;2023-10-09T13:57:45;99726.12;;;14.00;28.62
34103;BME280;20381;54.498;18.206;2023-10-09T14:00:15;99721.80;;;14.08;28.74
34103;BME280;20381;54.498;18.206;2023-10-09T14:03:01;99720.96;;;14.22;28.79
34103;BME280;20381;54.498;18.206;2023-10-09T14:05:40;99720.91;;;14.31;28.81
34103;BME280;20381;54.498;18.206;2023-10-09T14:08:26;99717.83;;;14.30;28.94
34103;BME280;20381;54.498;18.206;2023-10-09T14:10:57;99713.76;;;14.22;29.38
34103;BME280;20381;54.498;18.206;2023-10-09T14:13:28;99714.11;;;14.17;29.62
34103;BME280;20381;54.498;18.206;2023-10-09T14:15:57;99722.70;;;14.19;29.92
34103;BME280;20381;54.498;18.206;2023-10-09T14:18:30;99723.63;;;14.27;30.07
34103;BME280;20381;54.498;18.206;2023-10-09T14:21:02;99723.83;;;14.29;30.16
34103;BME280;20381;54.498;18.206;2023-10-09T14:23:34;99724.31;;;14.16;30.19